sensor_id;sensor_type;location;lat;lon;timestamp;P1;durP1;ratioP1;P2;durP2;ratioP2
69161;SDS011;56269;51.738;21.652;2022-07-23T00:00:39;28.13;;;20.08;;
69161;SDS011;56269;51.738;21.652;2022-07-23T00:03:06;27.40;;;18.40;;
69161;SDS011;56269;51.738;21.652;2022-07-23T00:05:32;26.80;;;19.13;;
69161;SDS011;56269;51.738;21.652;2022-07-23T00:07:58;31.92;;;18.58;;
69161;SDS011;56269;51.738;21.652;2022-07-23T00:10:24;27.70;;;18.95;;
69161;SDS011;56269;51.738;21.652;2022-07-23T00:12:50;26.33;;;18.17;;
69161;SDS011;56269;51.738;21.652;2022-07-23T00:15:16;29.33;;;18.98;;
69161;SDS011;56269;51.738;21.652;2022-07-23T00:17:42;25.48;;;18.25;;
69161;SDS011;56269;51.738;21.652;2022-07-23T00:20:08;27.20;;;18.42;;
69161;SDS011;56269;51.738;21.652;2022-07-23T00:22:34;27.43;;;18.73;;
69161;SDS011;56269;51.738;21.652;2022-07-23T00:25:00;27.60;;;19.08;;
69161;SDS011;56269;51.738;21.652;2022-07-23T00:27:26;27.13;;;18.38;;
69161;SDS011;56269;51.738;21.652;2022-07-23T00:29:52;28.58;;;18.95;;
69161;SDS011;56269;51.738;21.652;2022-07-23T00:32:18;28.07;;;19.47;;
69161;SDS011;56269;51.738;21.652;2022-07-23T00:34:44;27.43;;;18.60;;
69161;SDS011;56269;51.738;21.652;2022-07-23T00:37:10;28.98;;;18.52;;
69161;SDS011;56269;51.738;21.652;2022-07-23T00:39:36;25.40;;;18.73;;
69161;SDS011;56269;51.738;21.652;2022-07-23T00:42:02;27.88;;;19.38;;
69161;SDS011;56269;51.738;21.652;2022-07-23T00:44:28;29.07;;;19.60;;
69161;SDS011;56269;51.738;21.652;2022-07-23T00:46:56;27.90;;;19.08;;
69161;SDS011;56269;51.738;21.652;2022-07-23T00:49:24;30.52;;;19.50;;
69161;SDS011;56269;51.738;21.652;2022-07-23T00:51:52;25.83;;;18.25;;
69161;SDS011;56269;51.738;21.652;2022-07-23T00:54:19;26.52;;;19.33;;
69161;SDS011;56269;51.738;21.652;2022-07-23T00:56:47;28.37;;;19.20;;
69161;SDS011;56269;51.738;21.652;2022-07-23T00:59:13;28.63;;;19.25;;
69161;SDS011;56269;51.738;21.652;2022-07-23T01:01:39;28.23;;;19.42;;
69161;SDS011;56269;51.738;21.652;2022-07-23T01:04:06;29.00;;;19.60;;
69161;SDS011;56269;51.738;21.652;2022-07-23T01:06:34;30.30;;;19.03;;
69161;SDS011;56269;51.738;21.652;2022-07-23T01:09:03;26.95;;;18.92;;
69161;SDS011;56269;51.738;21.652;2022-07-23T01:11:33;27.17;;;18.63;;
69161;SDS011;56269;51.738;21.652;2022-07-23T01:16:37;32.28;;;20.23;;
69161;SDS011;56269;51.738;21.652;2022-07-23T01:19:02;31.50;;;19.63;;
69161;SDS011;56269;51.738;21.652;2022-07-23T01:21:39;29.25;;;19.02;;
69161;SDS011;56269;51.738;21.652;2022-07-23T01:24:07;29.17;;;19.73;;
69161;SDS011;56269;51.738;21.652;2022-07-23T01:26:34;28.83;;;19.20;;
69161;SDS011;56269;51.738;21.652;2022-07-23T01:29:00;31.70;;;19.38;;
69161;SDS011;56269;51.738;21.652;2022-07-23T01:31:26;27.43;;;18.77;;
69161;SDS011;56269;51.738;21.652;2022-07-23T01:33:53;29.35;;;19.50;;
69161;SDS011;56269;51.738;21.652;2022-07-23T01:36:19;30.23;;;18.85;;
69161;SDS011;56269;51.738;21.652;2022-07-23T01:38:45;28.92;;;19.73;;
69161;SDS011;56269;51.738;21.652;2022-07-23T01:41:11;28.60;;;19.10;;
69161;SDS011;56269;51.738;21.652;2022-07-23T01:43:37;28.58;;;19.35;;
69161;SDS011;56269;51.738;21.652;2022-07-23T01:46:03;29.40;;;19.13;;
69161;SDS011;56269;51.738;21.652;2022-07-23T01:48:29;30.73;;;19.55;;
69161;SDS011;56269;51.738;21.652;2022-07-23T01:50:55;30.47;;;20.33;;
69161;SDS011;56269;51.738;21.652;2022-07-23T01:53:21;29.58;;;20.33;;
69161;SDS011;56269;51.738;21.652;2022-07-23T01:55:47;31.00;;;20.33;;
69161;SDS011;56269;51.738;21.652;2022-07-23T01:58:13;30.45;;;20.75;;
69161;SDS011;56269;51.738;21.652;2022-07-23T02:00:39;32.45;;;21.35;;
69161;SDS011;56269;51.738;21.652;2022-07-23T02:03:05;33.83;;;21.67;;
69161;SDS011;56269;51.738;21.652;2022-07-23T02:05:31;34.58;;;22.02;;
69161;SDS011;56269;51.738;21.652;2022-07-23T02:07:58;34.53;;;21.77;;
69161;SDS011;56269;51.738;21.652;2022-07-23T02:10:25;36.20;;;22.75;;
69161;SDS011;56269;51.738;21.652;2022-07-23T02:12:51;36.00;;;22.37;;
69161;SDS011;56269;51.738;21.652;2022-07-23T02:15:18;33.30;;;21.52;;
69161;SDS011;56269;51.738;21.652;2022-07-23T02:17:43;35.80;;;21.45;;
69161;SDS011;56269;51.738;21.652;2022-07-23T02:20:10;35.53;;;21.88;;
69161;SDS011;56269;51.738;21.652;2022-07-23T02:22:37;34.63;;;21.73;;
69161;SDS011;56269;51.738;21.652;2022-07-23T02:25:04;33.67;;;21.08;;
69161;SDS011;56269;51.738;21.652;2022-07-23T02:27:31;33.53;;;20.55;;
69161;SDS011;56269;51.738;21.652;2022-07-23T02:29:58;33.00;;;20.17;;
69161;SDS011;56269;51.738;21.652;2022-07-23T02:32:23;36.00;;;22.53;;
69161;SDS011;56269;51.738;21.652;2022-07-23T02:34:50;38.73;;;23.67;;
69161;SDS011;56269;51.738;21.652;2022-07-23T02:37:16;36.28;;;22.92;;
69161;SDS011;56269;51.738;21.652;2022-07-23T02:39:43;33.05;;;21.45;;
69161;SDS011;56269;51.738;21.652;2022-07-23T02:42:09;35.53;;;21.58;;
69161;SDS011;56269;51.738;21.652;2022-07-23T02:44:35;35.63;;;21.48;;
69161;SDS011;56269;51.738;21.652;2022-07-23T02:47:01;37.30;;;22.40;;
69161;SDS011;56269;51.738;21.652;2022-07-23T02:49:27;35.15;;;21.48;;
69161;SDS011;56269;51.738;21.652;2022-07-23T02:51:53;33.28;;;21.83;;
69161;SDS011;56269;51.738;21.652;2022-07-23T02:54:19;35.03;;;21.98;;
69161;SDS011;56269;51.738;21.652;2022-07-23T02:56:45;35.03;;;22.37;;
69161;SDS011;56269;51.738;21.652;2022-07-23T02:59:11;36.15;;;22.48;;
69161;SDS011;56269;51.738;21.652;2022-07-23T03:01:37;34.75;;;22.13;;
69161;SDS011;56269;51.738;21.652;2022-07-23T03:04:03;36.65;;;22.75;;
69161;SDS011;56269;51.738;21.652;2022-07-23T03:06:29;33.43;;;21.93;;
69161;SDS011;56269;51.738;21.652;2022-07-23T03:08:55;35.60;;;22.80;;
69161;SDS011;56269;51.738;21.652;2022-07-23T03:11:21;38.03;;;23.52;;
69161;SDS011;56269;51.738;21.652;2022-07-23T03:13:47;35.85;;;22.80;;
69161;SDS011;56269;51.738;21.652;2022-07-23T03:16:13;36.90;;;22.27;;
69161;SDS011;56269;51.738;21.652;2022-07-23T03:18:39;41.50;;;23.73;;
69161;SDS011;56269;51.738;21.652;2022-07-23T03:21:05;32.58;;;21.38;;
69161;SDS011;56269;51.738;21.652;2022-07-23T03:23:31;44.63;;;22.40;;
69161;SDS011;56269;51.738;21.652;2022-07-23T03:25:57;34.38;;;20.60;;
69161;SDS011;56269;51.738;21.652;2022-07-23T03:28:23;32.22;;;20.23;;
69161;SDS011;56269;51.738;21.652;2022-07-23T03:30:49;32.40;;;19.88;;
69161;SDS011;56269;51.738;21.652;2022-07-23T03:33:16;31.97;;;20.27;;
69161;SDS011;56269;51.738;21.652;2022-07-23T03:35:43;34.60;;;21.65;;
69161;SDS011;56269;51.738;21.652;2022-07-23T03:38:10;30.00;;;20.13;;
69161;SDS011;56269;51.738;21.652;2022-07-23T03:40:36;31.52;;;21.08;;
69161;SDS011;56269;51.738;21.652;2022-07-23T03:43:02;33.30;;;20.50;;
69161;SDS011;56269;51.738;21.652;2022-07-23T03:45:29;79.83;;;22.13;;
69161;SDS011;56269;51.738;21.652;2022-07-23T03:47:55;32.97;;;20.63;;
69161;SDS011;56269;51.738;21.652;2022-07-23T03:50:21;27.00;;;19.17;;
69161;SDS011;56269;51.738;21.652;2022-07-23T03:52:47;39.97;;;19.23;;
69161;SDS011;56269;51.738;21.652;2022-07-23T03:55:14;36.85;;;19.05;;
69161;SDS011;56269;51.738;21.652;2022-07-23T03:57:40;33.60;;;18.17;;
69161;SDS011;56269;51.738;21.652;2022-07-23T04:00:06;26.40;;;17.38;;
69161;SDS011;56269;51.738;21.652;2022-07-23T04:02:36;26.90;;;17.42;;
69161;SDS011;56269;51.738;21.652;2022-07-23T04:05:03;24.38;;;16.95;;
69161;SDS011;56269;51.738;21.652;2022-07-23T04:07:30;24.90;;;16.95;;
69161;SDS011;56269;51.738;21.652;2022-07-23T04:09:56;27.20;;;17.63;;
69161;SDS011;56269;51.738;21.652;2022-07-23T04:12:23;25.58;;;18.80;;
69161;SDS011;56269;51.738;21.652;2022-07-23T04:14:49;28.15;;;18.23;;
69161;SDS011;56269;51.738;21.652;2022-07-23T04:17:15;28.10;;;18.42;;
69161;SDS011;56269;51.738;21.652;2022-07-23T04:19:42;25.63;;;18.27;;
69161;SDS011;56269;51.738;21.652;2022-07-23T04:22:12;30.57;;;18.30;;
69161;SDS011;56269;51.738;21.652;2022-07-23T04:24:38;27.02;;;18.65;;
69161;SDS011;56269;51.738;21.652;2022-07-23T04:27:04;27.45;;;18.38;;
69161;SDS011;56269;51.738;21.652;2022-07-23T04:29:31;28.98;;;17.65;;
69161;SDS011;56269;51.738;21.652;2022-07-23T04:31:56;24.30;;;17.20;;
69161;SDS011;56269;51.738;21.652;2022-07-23T04:34:23;23.65;;;16.42;;
69161;SDS011;56269;51.738;21.652;2022-07-23T04:36:52;22.48;;;16.92;;
69161;SDS011;56269;51.738;21.652;2022-07-23T04:39:19;23.15;;;16.67;;
69161;SDS011;56269;51.738;21.652;2022-07-23T04:41:45;23.25;;;16.80;;
69161;SDS011;56269;51.738;21.652;2022-07-23T04:44:11;23.37;;;16.00;;
69161;SDS011;56269;51.738;21.652;2022-07-23T04:46:37;22.88;;;17.20;;
69161;SDS011;56269;51.738;21.652;2022-07-23T04:49:03;23.88;;;16.33;;
69161;SDS011;56269;51.738;21.652;2022-07-23T04:51:29;23.05;;;16.67;;
69161;SDS011;56269;51.738;21.652;2022-07-23T04:53:55;22.50;;;16.37;;
69161;SDS011;56269;51.738;21.652;2022-07-23T04:56:22;21.80;;;16.65;;
69161;SDS011;56269;51.738;21.652;2022-07-23T04:58:47;22.67;;;17.30;;
69161;SDS011;56269;51.738;21.652;2022-07-23T05:01:13;23.73;;;17.38;;
69161;SDS011;56269;51.738;21.652;2022-07-23T05:03:40;22.13;;;16.58;;
69161;SDS011;56269;51.738;21.652;2022-07-23T05:06:06;22.57;;;16.43;;
69161;SDS011;56269;51.738;21.652;2022-07-23T05:08:32;23.55;;;17.00;;
69161;SDS011;56269;51.738;21.652;2022-07-23T05:10:58;22.27;;;17.23;;
69161;SDS011;56269;51.738;21.652;2022-07-23T05:13:24;23.60;;;17.08;;
69161;SDS011;56269;51.738;21.652;2022-07-23T05:15:50;23.70;;;17.17;;
69161;SDS011;56269;51.738;21.652;2022-07-23T05:18:16;23.88;;;17.63;;
69161;SDS011;56269;51.738;21.652;2022-07-23T05:20:42;24.00;;;17.45;;
69161;SDS011;56269;51.738;21.652;2022-07-23T05:23:08;26.02;;;17.67;;
69161;SDS011;56269;51.738;21.652;2022-07-23T05:25:35;23.20;;;17.88;;
69161;SDS011;56269;51.738;21.652;2022-07-23T05:28:01;27.37;;;17.57;;
69161;SDS011;56269;51.738;21.652;2022-07-23T05:30:27;25.58;;;16.77;;
69161;SDS011;56269;51.738;21.652;2022-07-23T05:32:54;22.55;;;17.35;;
69161;SDS011;56269;51.738;21.652;2022-07-23T05:35:20;22.20;;;16.50;;
69161;SDS011;56269;51.738;21.652;2022-07-23T05:37:45;19.50;;;15.53;;
69161;SDS011;56269;51.738;21.652;2022-07-23T05:40:12;20.47;;;14.67;;
69161;SDS011;56269;51.738;21.652;2022-07-23T05:42:39;21.92;;;14.55;;
69161;SDS011;56269;51.738;21.652;2022-07-23T05:45:06;18.67;;;14.40;;
69161;SDS011;56269;51.738;21.652;2022-07-23T05:47:43;18.73;;;15.25;;
69161;SDS011;56269;51.738;21.652;2022-07-23T05:50:11;19.40;;;15.23;;
69161;SDS011;56269;51.738;21.652;2022-07-23T05:52:38;18.30;;;14.50;;
69161;SDS011;56269;51.738;21.652;2022-07-23T05:55:04;19.23;;;15.05;;
69161;SDS011;56269;51.738;21.652;2022-07-23T05:57:31;19.17;;;14.32;;
69161;SDS011;56269;51.738;21.652;2022-07-23T05:59:57;19.58;;;14.02;;
69161;SDS011;56269;51.738;21.652;2022-07-23T06:02:23;20.30;;;14.17;;
69161;SDS011;56269;51.738;21.652;2022-07-23T06:04:49;18.40;;;13.88;;
69161;SDS011;56269;51.738;21.652;2022-07-23T06:07:15;19.58;;;14.85;;
69161;SDS011;56269;51.738;21.652;2022-07-23T06:09:41;21.55;;;14.95;;
69161;SDS011;56269;51.738;21.652;2022-07-23T06:12:07;18.50;;;14.40;;
69161;SDS011;56269;51.738;21.652;2022-07-23T06:14:33;20.05;;;15.43;;
69161;SDS011;56269;51.738;21.652;2022-07-23T06:17:00;17.95;;;14.25;;
69161;SDS011;56269;51.738;21.652;2022-07-23T06:19:25;18.58;;;15.30;;
69161;SDS011;56269;51.738;21.652;2022-07-23T06:21:52;20.77;;;15.47;;
69161;SDS011;56269;51.738;21.652;2022-07-23T06:24:18;22.30;;;15.63;;
69161;SDS011;56269;51.738;21.652;2022-07-23T06:26:44;23.65;;;17.08;;
69161;SDS011;56269;51.738;21.652;2022-07-23T06:29:10;21.33;;;16.67;;
69161;SDS011;56269;51.738;21.652;2022-07-23T06:31:36;21.40;;;16.37;;
69161;SDS011;56269;51.738;21.652;2022-07-23T06:34:02;19.80;;;16.55;;
69161;SDS011;56269;51.738;21.652;2022-07-23T06:36:28;22.02;;;16.58;;
69161;SDS011;56269;51.738;21.652;2022-07-23T06:38:54;21.83;;;16.25;;
69161;SDS011;56269;51.738;21.652;2022-07-23T06:41:20;22.27;;;16.50;;
69161;SDS011;56269;51.738;21.652;2022-07-23T06:43:48;20.20;;;15.53;;
69161;SDS011;56269;51.738;21.652;2022-07-23T06:46:14;19.15;;;14.95;;
69161;SDS011;56269;51.738;21.652;2022-07-23T06:48:40;18.05;;;15.35;;
69161;SDS011;56269;51.738;21.652;2022-07-23T06:51:06;20.77;;;15.50;;
69161;SDS011;56269;51.738;21.652;2022-07-23T06:53:32;21.30;;;15.53;;
69161;SDS011;56269;51.738;21.652;2022-07-23T06:55:58;19.17;;;15.33;;
69161;SDS011;56269;51.738;21.652;2022-07-23T06:58:24;19.17;;;15.65;;
69161;SDS011;56269;51.738;21.652;2022-07-23T07:00:50;20.77;;;15.52;;
69161;SDS011;56269;51.738;21.652;2022-07-23T07:03:17;20.50;;;15.13;;
69161;SDS011;56269;51.738;21.652;2022-07-23T07:05:44;20.50;;;15.47;;
69161;SDS011;56269;51.738;21.652;2022-07-23T07:08:11;19.20;;;15.52;;
69161;SDS011;56269;51.738;21.652;2022-07-23T07:10:36;19.75;;;15.70;;
69161;SDS011;56269;51.738;21.652;2022-07-23T07:13:03;21.55;;;16.17;;
69161;SDS011;56269;51.738;21.652;2022-07-23T07:15:29;18.93;;;14.70;;
69161;SDS011;56269;51.738;21.652;2022-07-23T07:17:55;19.92;;;15.27;;
69161;SDS011;56269;51.738;21.652;2022-07-23T07:20:21;20.67;;;14.10;;
69161;SDS011;56269;51.738;21.652;2022-07-23T07:22:47;20.40;;;15.65;;
69161;SDS011;56269;51.738;21.652;2022-07-23T07:25:13;17.00;;;14.63;;
69161;SDS011;56269;51.738;21.652;2022-07-23T07:27:39;18.77;;;13.00;;
69161;SDS011;56269;51.738;21.652;2022-07-23T07:30:06;16.63;;;13.60;;
69161;SDS011;56269;51.738;21.652;2022-07-23T07:32:33;18.60;;;13.73;;
69161;SDS011;56269;51.738;21.652;2022-07-23T07:34:59;17.60;;;12.95;;
69161;SDS011;56269;51.738;21.652;2022-07-23T07:37:25;18.33;;;13.07;;
69161;SDS011;56269;51.738;21.652;2022-07-23T07:39:51;16.20;;;12.80;;
69161;SDS011;56269;51.738;21.652;2022-07-23T07:42:17;14.85;;;11.48;;
69161;SDS011;56269;51.738;21.652;2022-07-23T07:44:43;15.05;;;11.60;;
69161;SDS011;56269;51.738;21.652;2022-07-23T07:47:09;18.50;;;12.10;;
69161;SDS011;56269;51.738;21.652;2022-07-23T07:49:35;13.82;;;11.00;;
69161;SDS011;56269;51.738;21.652;2022-07-23T07:52:01;13.75;;;11.15;;
69161;SDS011;56269;51.738;21.652;2022-07-23T07:54:27;16.20;;;10.50;;
69161;SDS011;56269;51.738;21.652;2022-07-23T07:56:53;14.00;;;10.18;;
69161;SDS011;56269;51.738;21.652;2022-07-23T07:59:19;16.20;;;10.03;;
69161;SDS011;56269;51.738;21.652;2022-07-23T08:01:45;13.27;;;10.27;;
69161;SDS011;56269;51.738;21.652;2022-07-23T08:04:11;12.73;;;9.70;;
69161;SDS011;56269;51.738;21.652;2022-07-23T08:06:37;13.63;;;10.13;;
69161;SDS011;56269;51.738;21.652;2022-07-23T08:09:03;12.93;;;9.70;;
69161;SDS011;56269;51.738;21.652;2022-07-23T08:11:29;13.65;;;9.88;;
69161;SDS011;56269;51.738;21.652;2022-07-23T08:13:55;14.05;;;10.38;;
69161;SDS011;56269;51.738;21.652;2022-07-23T08:16:21;13.75;;;10.05;;
69161;SDS011;56269;51.738;21.652;2022-07-23T08:18:47;12.17;;;9.20;;
69161;SDS011;56269;51.738;21.652;2022-07-23T08:21:13;13.82;;;9.77;;
69161;SDS011;56269;51.738;21.652;2022-07-23T08:23:39;12.30;;;9.45;;
69161;SDS011;56269;51.738;21.652;2022-07-23T08:26:06;13.05;;;8.98;;
69161;SDS011;56269;51.738;21.652;2022-07-23T08:28:32;11.00;;;8.15;;
69161;SDS011;56269;51.738;21.652;2022-07-23T08:30:58;11.80;;;8.50;;
69161;SDS011;56269;51.738;21.652;2022-07-23T08:33:25;12.70;;;9.02;;
69161;SDS011;56269;51.738;21.652;2022-07-23T08:35:51;11.63;;;8.60;;
69161;SDS011;56269;51.738;21.652;2022-07-23T08:38:19;11.10;;;8.40;;
69161;SDS011;56269;51.738;21.652;2022-07-23T08:40:50;11.38;;;8.05;;
69161;SDS011;56269;51.738;21.652;2022-07-23T08:43:28;12.17;;;8.20;;
69161;SDS011;56269;51.738;21.652;2022-07-23T08:45:56;12.38;;;8.05;;
69161;SDS011;56269;51.738;21.652;2022-07-23T08:48:31;11.73;;;7.80;;
69161;SDS011;56269;51.738;21.652;2022-07-23T08:50:59;10.75;;;7.57;;
69161;SDS011;56269;51.738;21.652;2022-07-23T08:53:27;12.45;;;7.72;;
69161;SDS011;56269;51.738;21.652;2022-07-23T08:55:56;10.33;;;7.60;;
69161;SDS011;56269;51.738;21.652;2022-07-23T08:58:23;11.00;;;7.57;;
69161;SDS011;56269;51.738;21.652;2022-07-23T09:00:50;11.23;;;7.35;;
69161;SDS011;56269;51.738;21.652;2022-07-23T09:03:18;11.75;;;7.15;;
69161;SDS011;56269;51.738;21.652;2022-07-23T09:05:51;10.60;;;6.80;;
69161;SDS011;56269;51.738;21.652;2022-07-23T09:08:19;13.13;;;7.43;;
69161;SDS011;56269;51.738;21.652;2022-07-23T09:10:54;10.48;;;7.30;;
69161;SDS011;56269;51.738;21.652;2022-07-23T09:13:23;9.43;;;7.10;;
69161;SDS011;56269;51.738;21.652;2022-07-23T09:15:50;11.10;;;6.90;;
69161;SDS011;56269;51.738;21.652;2022-07-23T09:18:17;10.68;;;6.55;;
69161;SDS011;56269;51.738;21.652;2022-07-23T09:20:44;9.80;;;6.60;;
69161;SDS011;56269;51.738;21.652;2022-07-23T09:23:13;8.73;;;6.40;;
69161;SDS011;56269;51.738;21.652;2022-07-23T09:25:39;12.68;;;6.82;;
69161;SDS011;56269;51.738;21.652;2022-07-23T09:28:05;9.52;;;7.13;;
69161;SDS011;56269;51.738;21.652;2022-07-23T09:30:33;10.75;;;6.57;;
69161;SDS011;56269;51.738;21.652;2022-07-23T09:38:21;9.05;;;6.55;;
69161;SDS011;56269;51.738;21.652;2022-07-23T09:41:10;11.20;;;5.93;;
69161;SDS011;56269;51.738;21.652;2022-07-23T09:43:36;9.15;;;6.40;;
69161;SDS011;56269;51.738;21.652;2022-07-23T09:48:52;9.25;;;6.22;;
69161;SDS011;56269;51.738;21.652;2022-07-23T09:51:22;10.23;;;6.93;;
69161;SDS011;56269;51.738;21.652;2022-07-23T09:54:01;9.77;;;6.88;;
69161;SDS011;56269;51.738;21.652;2022-07-23T09:56:28;10.25;;;7.78;;
69161;SDS011;56269;51.738;21.652;2022-07-23T09:58:55;11.40;;;6.93;;
69161;SDS011;56269;51.738;21.652;2022-07-23T10:01:37;11.70;;;7.00;;
69161;SDS011;56269;51.738;21.652;2022-07-23T10:04:04;10.73;;;7.18;;
69161;SDS011;56269;51.738;21.652;2022-07-23T10:06:32;10.20;;;7.28;;
69161;SDS011;56269;51.738;21.652;2022-07-23T10:08:59;9.57;;;7.00;;
69161;SDS011;56269;51.738;21.652;2022-07-23T10:11:27;9.90;;;7.30;;
69161;SDS011;56269;51.738;21.652;2022-07-23T10:13:56;11.43;;;7.63;;
69161;SDS011;56269;51.738;21.652;2022-07-23T10:16:26;9.85;;;7.35;;
69161;SDS011;56269;51.738;21.652;2022-07-23T10:18:53;10.20;;;7.10;;
69161;SDS011;56269;51.738;21.652;2022-07-23T10:21:21;10.13;;;7.60;;
69161;SDS011;56269;51.738;21.652;2022-07-23T10:26:53;10.00;;;7.07;;
69161;SDS011;56269;51.738;21.652;2022-07-23T10:32:08;10.00;;;7.13;;
69161;SDS011;56269;51.738;21.652;2022-07-23T10:37:47;10.93;;;7.80;;
69161;SDS011;56269;51.738;21.652;2022-07-23T10:42:43;11.93;;;7.32;;
69161;SDS011;56269;51.738;21.652;2022-07-23T10:48:15;12.90;;;7.13;;
69161;SDS011;56269;51.738;21.652;2022-07-23T10:50:45;10.23;;;6.97;;
69161;SDS011;56269;51.738;21.652;2022-07-23T10:56:21;10.05;;;7.18;;
69161;SDS011;56269;51.738;21.652;2022-07-23T10:59:24;10.27;;;6.70;;
69161;SDS011;56269;51.738;21.652;2022-07-23T11:01:50;10.00;;;6.77;;
69161;SDS011;56269;51.738;21.652;2022-07-23T11:04:16;11.50;;;6.97;;
69161;SDS011;56269;51.738;21.652;2022-07-23T11:09:24;9.63;;;6.75;;
69161;SDS011;56269;51.738;21.652;2022-07-23T11:12:34;11.32;;;7.80;;
69161;SDS011;56269;51.738;21.652;2022-07-23T11:15:06;10.83;;;6.60;;
69161;SDS011;56269;51.738;21.652;2022-07-23T11:18:18;10.25;;;6.55;;
69161;SDS011;56269;51.738;21.652;2022-07-23T11:20:21;9.70;;;6.45;;
69161;SDS011;56269;51.738;21.652;2022-07-23T11:22:54;11.50;;;6.90;;
69161;SDS011;56269;51.738;21.652;2022-07-23T11:27:49;10.60;;;7.43;;
69161;SDS011;56269;51.738;21.652;2022-07-23T11:32:52;13.65;;;7.65;;
69161;SDS011;56269;51.738;21.652;2022-07-23T11:35:19;10.70;;;7.07;;
69161;SDS011;56269;51.738;21.652;2022-07-23T11:37:47;10.67;;;6.90;;
69161;SDS011;56269;51.738;21.652;2022-07-23T11:40:15;10.57;;;7.00;;
69161;SDS011;56269;51.738;21.652;2022-07-23T11:42:52;10.82;;;6.93;;
69161;SDS011;56269;51.738;21.652;2022-07-23T11:45:18;10.00;;;7.20;;
69161;SDS011;56269;51.738;21.652;2022-07-23T11:47:44;10.80;;;7.28;;
69161;SDS011;56269;51.738;21.652;2022-07-23T11:50:10;11.70;;;7.50;;
69161;SDS011;56269;51.738;21.652;2022-07-23T11:52:36;11.30;;;7.72;;
69161;SDS011;56269;51.738;21.652;2022-07-23T11:55:05;11.50;;;7.53;;
69161;SDS011;56269;51.738;21.652;2022-07-23T11:57:40;9.95;;;7.28;;
69161;SDS011;56269;51.738;21.652;2022-07-23T12:02:39;11.13;;;7.13;;
69161;SDS011;56269;51.738;21.652;2022-07-23T12:05:10;11.27;;;6.88;;
69161;SDS011;56269;51.738;21.652;2022-07-23T12:07:42;10.63;;;7.07;;
69161;SDS011;56269;51.738;21.652;2022-07-23T12:10:19;9.85;;;6.80;;
69161;SDS011;56269;51.738;21.652;2022-07-23T12:13:08;10.60;;;7.07;;
69161;SDS011;56269;51.738;21.652;2022-07-23T12:15:37;11.43;;;7.50;;
69161;SDS011;56269;51.738;21.652;2022-07-23T12:18:11;11.52;;;7.40;;
69161;SDS011;56269;51.738;21.652;2022-07-23T12:20:40;10.27;;;6.95;;
69161;SDS011;56269;51.738;21.652;2022-07-23T12:23:12;11.18;;;7.20;;
69161;SDS011;56269;51.738;21.652;2022-07-23T12:25:40;10.52;;;7.30;;
69161;SDS011;56269;51.738;21.652;2022-07-23T12:28:11;11.07;;;7.40;;
69161;SDS011;56269;51.738;21.652;2022-07-23T12:33:13;11.32;;;7.20;;
69161;SDS011;56269;51.738;21.652;2022-07-23T12:35:52;10.32;;;7.28;;
69161;SDS011;56269;51.738;21.652;2022-07-23T12:38:20;12.68;;;7.22;;
69161;SDS011;56269;51.738;21.652;2022-07-23T12:40:48;12.97;;;7.40;;
69161;SDS011;56269;51.738;21.652;2022-07-23T12:43:30;11.13;;;7.40;;
69161;SDS011;56269;51.738;21.652;2022-07-23T12:46:02;11.15;;;7.15;;
69161;SDS011;56269;51.738;21.652;2022-07-23T12:48:32;9.82;;;7.28;;
69161;SDS011;56269;51.738;21.652;2022-07-23T12:51:17;10.98;;;7.30;;
69161;SDS011;56269;51.738;21.652;2022-07-23T12:53:55;10.73;;;7.17;;
69161;SDS011;56269;51.738;21.652;2022-07-23T12:56:27;13.43;;;7.50;;
69161;SDS011;56269;51.738;21.652;2022-07-23T12:59:04;13.30;;;7.35;;
69161;SDS011;56269;51.738;21.652;2022-07-23T13:01:37;13.77;;;7.38;;
69161;SDS011;56269;51.738;21.652;2022-07-23T13:04:11;11.38;;;7.40;;
69161;SDS011;56269;51.738;21.652;2022-07-23T13:06:43;13.27;;;7.53;;
69161;SDS011;56269;51.738;21.652;2022-07-23T13:09:13;18.58;;;7.85;;
69161;SDS011;56269;51.738;21.652;2022-07-23T13:11:44;14.88;;;7.82;;
69161;SDS011;56269;51.738;21.652;2022-07-23T13:14:11;20.88;;;8.20;;
69161;SDS011;56269;51.738;21.652;2022-07-23T13:16:38;16.40;;;8.05;;
69161;SDS011;56269;51.738;21.652;2022-07-23T13:19:06;12.73;;;8.10;;
69161;SDS011;56269;51.738;21.652;2022-07-23T13:21:32;11.85;;;7.78;;
69161;SDS011;56269;51.738;21.652;2022-07-23T13:23:59;10.95;;;7.40;;
69161;SDS011;56269;51.738;21.652;2022-07-23T13:26:25;11.88;;;7.63;;
69161;SDS011;56269;51.738;21.652;2022-07-23T13:28:51;11.30;;;7.60;;
69161;SDS011;56269;51.738;21.652;2022-07-23T13:31:18;11.25;;;7.88;;
69161;SDS011;56269;51.738;21.652;2022-07-23T13:33:44;11.70;;;7.50;;
69161;SDS011;56269;51.738;21.652;2022-07-23T13:36:10;13.27;;;7.63;;
69161;SDS011;56269;51.738;21.652;2022-07-23T13:38:37;11.40;;;7.75;;
69161;SDS011;56269;51.738;21.652;2022-07-23T13:41:04;11.83;;;7.60;;
69161;SDS011;56269;51.738;21.652;2022-07-23T13:43:31;10.70;;;7.43;;
69161;SDS011;56269;51.738;21.652;2022-07-23T13:45:58;11.48;;;7.70;;
69161;SDS011;56269;51.738;21.652;2022-07-23T13:48:24;11.32;;;7.28;;
69161;SDS011;56269;51.738;21.652;2022-07-23T13:50:51;10.27;;;6.90;;
69161;SDS011;56269;51.738;21.652;2022-07-23T13:53:20;12.60;;;7.50;;
69161;SDS011;56269;51.738;21.652;2022-07-23T13:55:50;10.20;;;7.30;;
69161;SDS011;56269;51.738;21.652;2022-07-23T13:58:18;10.30;;;7.90;;
69161;SDS011;56269;51.738;21.652;2022-07-23T14:00:47;11.95;;;7.55;;
69161;SDS011;56269;51.738;21.652;2022-07-23T14:03:16;10.30;;;7.60;;
69161;SDS011;56269;51.738;21.652;2022-07-23T14:05:43;12.77;;;8.00;;
69161;SDS011;56269;51.738;21.652;2022-07-23T14:08:09;11.70;;;7.70;;
69161;SDS011;56269;51.738;21.652;2022-07-23T14:10:35;11.77;;;8.10;;
69161;SDS011;56269;51.738;21.652;2022-07-23T14:13:01;11.05;;;7.90;;
69161;SDS011;56269;51.738;21.652;2022-07-23T14:15:29;11.02;;;7.53;;
69161;SDS011;56269;51.738;21.652;2022-07-23T14:17:57;11.43;;;7.70;;
69161;SDS011;56269;51.738;21.652;2022-07-23T14:20:23;10.55;;;7.28;;
69161;SDS011;56269;51.738;21.652;2022-07-23T14:22:51;10.35;;;7.90;;
69161;SDS011;56269;51.738;21.652;2022-07-23T14:25:18;13.85;;;8.00;;
69161;SDS011;56269;51.738;21.652;2022-07-23T14:27:44;10.75;;;8.00;;
69161;SDS011;56269;51.738;21.652;2022-07-23T14:30:11;10.37;;;7.60;;
69161;SDS011;56269;51.738;21.652;2022-07-23T14:32:38;11.27;;;7.75;;
69161;SDS011;56269;51.738;21.652;2022-07-23T14:35:04;13.50;;;8.20;;
69161;SDS011;56269;51.738;21.652;2022-07-23T14:37:31;11.70;;;7.72;;
69161;SDS011;56269;51.738;21.652;2022-07-23T14:39:58;12.15;;;8.10;;
69161;SDS011;56269;51.738;21.652;2022-07-23T14:42:24;10.43;;;7.30;;
69161;SDS011;56269;51.738;21.652;2022-07-23T14:44:51;11.73;;;7.80;;
69161;SDS011;56269;51.738;21.652;2022-07-23T14:47:17;12.57;;;8.02;;
69161;SDS011;56269;51.738;21.652;2022-07-23T14:49:43;12.43;;;7.97;;
69161;SDS011;56269;51.738;21.652;2022-07-23T14:52:09;12.40;;;8.40;;
69161;SDS011;56269;51.738;21.652;2022-07-23T14:54:35;11.33;;;7.97;;
69161;SDS011;56269;51.738;21.652;2022-07-23T14:57:03;14.32;;;8.43;;
69161;SDS011;56269;51.738;21.652;2022-07-23T14:59:30;12.40;;;7.97;;